Time;durP1;ratioP1;P1;durP2;ratioP2;P2;SDS_P1;SDS_P2;PMS_P1;PMS_P2;Temp;Humidity;BMP_temperature;BMP_pressure;BME280_temperature;BME280_humidity;BME280_pressure;Samples;Min_cycle;Max_cycle;Signal;HPM_P1;HPM_P2
2021/04/03 00:01:26;;;;;;;10.63;9.63;;;7.60;61.40;;;;;;5125278;28;20076;-69
2021/04/03 00:03:57;;;;;;;11.10;10.07;;;7.60;61.40;;;;;;5126514;28;20586;-69
2021/04/03 00:06:29;;;;;;;10.98;9.98;;;7.50;61.20;;;;;;5123439;28;20050;-69
2021/04/03 00:09:00;;;;;;;11.68;10.25;;;7.50;61.10;;;;;;5123097;28;20129;-69
2021/04/03 00:11:32;;;;;;;11.18;10.07;;;7.50;60.80;;;;;;5122367;28;20092;-69
2021/04/03 00:14:03;;;;;;;12.13;10.85;;;7.50;60.80;;;;;;5126385;28;20109;-69
2021/04/03 00:16:35;;;;;;;11.60;10.40;;;7.50;60.50;;;;;;5123849;28;20098;-69
2021/04/03 00:19:06;;;;;;;10.80;9.80;;;7.50;60.10;;;;;;5124816;28;20071;-69
2021/04/03 00:21:38;;;;;;;12.18;10.90;;;7.60;60.10;;;;;;5122459;28;20051;-68
2021/04/03 00:24:09;;;;;;;11.45;10.35;;;7.60;59.60;;;;;;5155948;28;20074;-68
2021/04/03 00:26:41;;;;;;;11.93;10.63;;;7.50;59.30;;;;;;5123280;28;20448;-69
2021/04/03 00:29:12;;;;;;;11.20;9.82;;;7.60;59.20;;;;;;5141488;28;20054;-69
2021/04/03 00:31:44;;;;;;;11.30;10.20;;;7.60;58.60;;;;;;5119261;28;20079;-69
2021/04/03 00:34:15;;;;;;;11.50;10.40;;;7.70;59.40;;;;;;5128267;28;20117;-69
2021/04/03 00:36:46;;;;;;;11.02;9.93;;;7.70;58.20;;;;;;5127454;28;20046;-69
2021/04/03 00:39:18;;;;;;;11.05;9.95;;;7.80;59.00;;;;;;5155223;28;20075;-70
2021/04/03 00:41:50;;;;;;;11.30;10.20;;;7.80;58.00;;;;;;5137837;28;20074;-70
2021/04/03 00:44:21;;;;;;;11.95;10.75;;;7.80;57.90;;;;;;5123414;28;20414;-69
2021/04/03 00:46:53;;;;;;;11.15;10.05;;;7.80;57.90;;;;;;5122322;28;20078;-69
2021/04/03 00:49:24;;;;;;;12.05;10.20;;;7.80;57.30;;;;;;5121488;28;20448;-68
2021/04/03 00:52:01;;;;;;;11.27;10.23;;;7.70;57.40;;;;;;5136446;28;20058;-68
2021/04/03 00:54:33;;;;;;;11.88;10.68;;;7.70;57.90;;;;;;5139485;28;20134;-69
2021/04/03 00:57:06;;;;;;;11.20;10.00;;;7.70;58.20;;;;;;5121306;28;20039;-70
2021/04/03 00:59:38;;;;;;;11.30;10.20;;;7.60;58.70;;;;;;5125477;28;20046;-69
2021/04/03 01:02:11;;;;;;;11.45;10.35;;;7.50;59.10;;;;;;5136358;28;20043;-69
2021/04/03 01:04:43;;;;;;;11.68;10.52;;;7.40;59.50;;;;;;5137821;28;20034;-70
2021/04/03 01:07:14;;;;;;;12.20;10.88;;;7.40;59.30;;;;;;5123614;28;20051;-69
2021/04/03 01:09:46;;;;;;;11.63;10.52;;;7.40;59.40;;;;;;5139461;28;20080;-69
2021/04/03 01:12:42;;;;;;;11.70;10.57;;;7.40;59.30;;;;;;5123478;28;20775;-71
2021/04/03 01:15:26;;;;;;;11.57;10.40;;;7.30;59.60;;;;;;5121770;28;20057;-69
2021/04/03 01:18:13;;;;;;;11.40;10.30;;;7.40;59.60;;;;;;5123547;28;20177;-70
2021/04/03 01:20:55;;;;;;;12.13;10.93;;;7.40;59.40;;;;;;5137714;28;20043;-69
2021/04/03 01:24:11;;;;;;;11.45;10.35;;;7.40;59.40;;;;;;5159256;28;20468;-70
2021/04/03 01:27:06;;;;;;;11.52;10.32;;;7.40;59.40;;;;;;5125395;28;20042;-69
2021/04/03 01:30:15;;;;;;;12.93;10.88;;;7.40;59.50;;;;;;5139404;28;20568;-67
2021/04/03 01:32:58;;;;;;;12.07;10.98;;;7.40;59.30;;;;;;5128282;28;20078;-68
2021/04/03 01:35:38;;;;;;;11.27;10.18;;;7.50;59.30;;;;;;5117350;28;20081;-68
2021/04/03 01:38:26;;;;;;;13.23;11.15;;;7.50;59.30;;;;;;5137258;28;20046;-69
2021/04/03 01:40:58;;;;;;;11.57;10.43;;;7.50;59.30;;;;;;5126678;28;20406;-69
2021/04/03 01:43:41;;;;;;;12.27;10.85;;;7.50;59.60;;;;;;5137718;28;20693;-69
2021/04/03 01:46:16;;;;;;;11.98;10.80;;;7.50;59.70;;;;;;5123343;28;20098;-69
2021/04/03 01:48:50;;;;;;;12.35;11.05;;;7.50;60.50;;;;;;5119276;28;20057;-71
2021/04/03 01:51:24;;;;;;;12.65;11.38;;;7.40;61.30;;;;;;5127414;28;20129;-68
2021/04/03 01:53:58;;;;;;;12.95;11.65;;;7.40;61.50;;;;;;5121449;28;20531;-69
2021/04/03 01:56:32;;;;;;;13.68;11.20;;;7.30;61.60;;;;;;5139195;28;20070;-69
2021/04/03 01:59:07;;;;;;;11.68;10.57;;;7.40;61.80;;;;;;5121261;28;20685;-69
2021/04/03 02:01:43;;;;;;;12.02;10.82;;;7.40;61.90;;;;;;5128969;28;20732;-71
2021/04/03 02:04:17;;;;;;;11.65;10.48;;;7.40;61.70;;;;;;5131155;28;20069;-69
2021/04/03 02:06:52;;;;;;;12.23;10.77;;;7.40;62.00;;;;;;5127738;28;20047;-68
2021/04/03 02:09:30;;;;;;;13.93;11.70;;;7.40;62.40;;;;;;5161827;28;20055;-68
2021/04/03 02:12:12;;;;;;;12.60;11.40;;;7.30;62.60;;;;;;5142409;28;20043;-70
2021/04/03 02:15:02;;;;;;;12.00;10.90;;;7.20;62.30;;;;;;5128078;28;20074;-69
2021/04/03 02:17:36;;;;;;;11.32;10.23;;;7.20;62.20;;;;;;5142587;28;20671;-70
2021/04/03 02:20:10;;;;;;;12.57;11.38;;;7.10;62.20;;;;;;5125571;28;20664;-68
2021/04/03 02:22:43;;;;;;;12.45;11.25;;;7.00;62.30;;;;;;5125613;28;20046;-68
2021/04/03 02:25:16;;;;;;;12.32;11.02;;;6.90;62.60;;;;;;5141376;28;20591;-68
2021/04/03 02:27:48;;;;;;;11.65;10.45;;;6.90;62.90;;;;;;5143596;28;20051;-69
2021/04/03 02:30:23;;;;;;;11.48;10.07;;;6.80;62.30;;;;;;5155290;28;20078;-69
2021/04/03 02:32:58;;;;;;;11.50;10.27;;;6.80;62.10;;;;;;5117350;28;20061;-69
2021/04/03 02:35:33;;;;;;;12.18;10.85;;;6.80;61.80;;;;;;5140824;28;20055;-70
2021/04/03 02:38:08;;;;;;;11.82;9.95;;;6.70;61.70;;;;;;5157308;28;20054;-69
2021/04/03 02:40:51;;;;;;;11.55;9.88;;;6.70;61.20;;;;;;5158415;28;20049;-69
2021/04/03 02:43:46;;;;;;;11.63;10.50;;;6.70;61.20;;;;;;5127630;28;20744;-69
2021/04/03 02:46:26;;;;;;;11.27;10.02;;;6.70;61.30;;;;;;5123595;28;20047;-69
2021/04/03 02:49:04;;;;;;;11.48;10.27;;;6.70;60.50;;;;;;5125215;28;20481;-69
2021/04/03 02:51:46;;;;;;;11.57;10.38;;;6.60;60.60;;;;;;5127532;28;20106;-69
2021/04/03 02:54:23;;;;;;;12.43;9.93;;;6.60;60.40;;;;;;5127852;28;20473;-70
2021/04/03 02:56:59;;;;;;;11.52;10.38;;;6.50;61.30;;;;;;5128004;28;20070;-69
2021/04/03 02:59:36;;;;;;;12.27;10.07;;;6.50;60.80;;;;;;5126799;28;20050;-69
2021/04/03 03:02:13;;;;;;;11.40;10.20;;;6.40;61.00;;;;;;5127569;28;20893;-71
2021/04/03 03:04:48;;;;;;;11.20;10.00;;;6.40;61.30;;;;;;5125511;28;20408;-69
2021/04/03 03:07:23;;;;;;;11.23;10.05;;;6.40;61.60;;;;;;5127415;28;20670;-70
2021/04/03 03:09:55;;;;;;;12.18;10.77;;;6.40;61.40;;;;;;5128007;28;20047;-69
2021/04/03 03:12:29;;;;;;;11.40;9.90;;;6.40;61.20;;;;;;5124689;28;20042;-69
2021/04/03 03:15:04;;;;;;;11.70;10.23;;;6.30;61.30;;;;;;5125130;28;20042;-69
2021/04/03 03:17:37;;;;;;;13.32;10.65;;;6.30;62.00;;;;;;5129963;28;20061;-69
2021/04/03 03:20:11;;;;;;;12.35;10.85;;;6.20;61.40;;;;;;5143442;28;20469;-68
2021/04/03 03:22:42;;;;;;;16.45;10.65;;;6.10;61.80;;;;;;5126191;28;20050;-69
2021/04/03 03:25:14;;;;;;;12.95;11.05;;;6.00;62.00;;;;;;5126727;28;20130;-70
2021/04/03 03:27:47;;;;;;;12.55;10.63;;;6.00;62.40;;;;;;5124958;28;20134;-69
2021/04/03 03:30:25;;;;;;;12.43;11.13;;;5.90;62.50;;;;;;5125010;28;20191;-69
2021/04/03 03:32:58;;;;;;;13.23;11.55;;;5.90;62.70;;;;;;5124196;28;20047;-70
2021/04/03 03:35:31;;;;;;;12.52;10.52;;;5.90;62.70;;;;;;5140670;28;20043;-70
2021/04/03 03:38:04;;;;;;;12.20;10.70;;;5.90;62.70;;;;;;5125726;28;20051;-69
2021/04/03 03:40:36;;;;;;;12.88;11.48;;;5.80;62.80;;;;;;5122051;28;20042;-69
2021/04/03 03:43:16;;;;;;;14.20;11.10;;;5.80;62.90;;;;;;5123263;28;20047;-69
2021/04/03 03:45:51;;;;;;;12.30;10.70;;;5.70;63.40;;;;;;5123708;28;20440;-70
2021/04/03 03:48:23;;;;;;;12.45;11.10;;;5.50;63.70;;;;;;5128442;28;20047;-69
2021/04/03 03:50:55;;;;;;;12.00;10.27;;;5.50;63.90;;;;;;5109154;28;20132;-70
2021/04/03 03:53:26;;;;;;;15.05;10.95;;;5.50;63.60;;;;;;5124349;28;20050;-69
2021/04/03 03:55:59;;;;;;;13.90;10.93;;;5.40;63.40;;;;;;5125489;28;20058;-69
2021/04/03 03:58:31;;;;;;;12.43;10.93;;;5.30;64.00;;;;;;5126181;28;20130;-69
2021/04/03 04:01:02;;;;;;;13.25;11.85;;;5.30;64.10;;;;;;5124718;28;20050;-70
2021/04/03 04:03:37;;;;;;;13.35;11.00;;;5.30;64.10;;;;;;5126084;28;20054;-69
2021/04/03 04:06:16;;;;;;;12.80;11.48;;;5.20;64.20;;;;;;5136129;28;20504;-70
2021/04/03 04:08:51;;;;;;;12.95;11.32;;;5.30;65.00;;;;;;5125063;28;20126;-69
2021/04/03 04:11:26;;;;;;;12.68;11.38;;;5.30;64.20;;;;;;5139614;28;20425;-69
2021/04/03 04:14:08;;;;;;;15.05;11.35;;;5.20;64.30;;;;;;5156322;28;20091;-69
2021/04/03 04:16:51;;;;;;;13.35;11.65;;;5.10;65.20;;;;;;5122141;28;20059;-69
2021/04/03 04:19:27;;;;;;;14.82;11.88;;;4.90;65.50;;;;;;5127872;28;20043;-69
2021/04/03 04:22:03;;;;;;;15.38;12.55;;;4.80;66.10;;;;;;5123759;28;20047;-70
2021/04/03 04:24:35;;;;;;;15.10;11.48;;;4.80;66.20;;;;;;5140477;28;20060;-70
2021/04/03 04:27:11;;;;;;;14.02;11.82;;;4.80;65.80;;;;;;5122612;28;20042;-70
2021/04/03 04:29:44;;;;;;;13.32;11.93;;;4.80;65.80;;;;;;5124849;28;20051;-69
2021/04/03 04:32:17;;;;;;;12.85;11.50;;;4.80;65.90;;;;;;5121943;28;20074;-70
2021/04/03 04:34:50;;;;;;;13.45;11.07;;;4.80;65.70;;;;;;5124847;28;20042;-69
2021/04/03 04:37:22;;;;;;;14.77;11.82;;;4.80;65.70;;;;;;5125457;28;20658;-69
2021/04/03 04:39:57;;;;;;;12.65;11.02;;;4.70;65.60;;;;;;5126326;28;20402;-70
2021/04/03 04:42:29;;;;;;;12.45;11.18;;;4.70;66.50;;;;;;5119467;28;20135;-68
2021/04/03 04:45:03;;;;;;;14.05;11.27;;;4.60;65.80;;;;;;5137480;28;20058;-69
2021/04/03 04:47:35;;;;;;;14.63;11.18;;;4.60;65.90;;;;;;5153429;28;20047;-69
2021/04/03 04:50:12;;;;;;;12.38;10.93;;;4.60;65.80;;;;;;5158262;28;20058;-69
2021/04/03 04:52:44;;;;;;;13.48;11.07;;;4.70;65.90;;;;;;5138629;28;20051;-69
2021/04/03 04:55:16;;;;;;;13.88;10.60;;;4.70;65.60;;;;;;5141258;28;20043;-70
2021/04/03 04:57:53;;;;;;;12.05;10.20;;;4.70;65.60;;;;;;5156689;28;20520;-68
2021/04/03 05:00:29;;;;;;;14.85;11.75;;;4.70;65.70;;;;;;5127233;28;20389;-68
2021/04/03 05:03:17;;;;;;;14.02;11.02;;;4.60;65.80;;;;;;5141334;28;20043;-70
2021/04/03 05:05:48;;;;;;;13.38;10.40;;;4.60;65.50;;;;;;5152628;28;20122;-69
2021/04/03 05:08:20;;;;;;;13.75;11.27;;;4.70;65.40;;;;;;5141161;28;20038;-70
2021/04/03 05:10:51;;;;;;;13.20;10.52;;;4.70;65.60;;;;;;5123788;28;20043;-69
2021/04/03 05:13:23;;;;;;;15.32;12.07;;;4.70;65.30;;;;;;5122128;28;20531;-68
2021/04/03 05:15:55;;;;;;;14.07;11.40;;;4.60;65.10;;;;;;5124041;28;20845;-68
2021/04/03 05:18:27;;;;;;;13.25;11.50;;;4.50;65.90;;;;;;5122622;28;20043;-69
2021/04/03 05:20:58;;;;;;;12.95;10.68;;;4.50;65.50;;;;;;5132629;28;20043;-69
2021/04/03 05:23:30;;;;;;;13.50;11.07;;;4.60;65.10;;;;;;5120840;28;20517;-69
2021/04/03 05:26:02;;;;;;;13.27;10.52;;;4.60;65.20;;;;;;5124072;28;20047;-69
2021/04/03 05:28:33;;;;;;;16.55;11.23;;;4.70;64.90;;;;;;5121135;28;20097;-69
2021/04/03 05:31:05;;;;;;;16.52;10.80;;;4.60;64.70;;;;;;5127102;28;20054;-69
2021/04/03 05:33:36;;;;;;;13.45;10.75;;;4.70;64.90;;;;;;5127163;28;20059;-68
2021/04/03 05:36:08;;;;;;;14.20;10.65;;;4.70;64.50;;;;;;5121018;28;20078;-68
2021/04/03 05:38:40;;;;;;;14.98;11.10;;;4.70;65.00;;;;;;5124876;28;20082;-68
2021/04/03 05:41:11;;;;;;;13.13;10.32;;;4.70;64.50;;;;;;5122308;28;20110;-68
2021/04/03 05:43:46;;;;;;;14.77;11.45;;;4.70;64.20;;;;;;5127036;28;20039;-68
2021/04/03 05:46:18;;;;;;;14.85;11.02;;;4.60;64.30;;;;;;5123840;28;20051;-69
2021/04/03 05:48:51;;;;;;;15.43;11.18;;;4.60;64.00;;;;;;5120792;28;20130;-68
2021/04/03 05:51:23;;;;;;;13.88;11.13;;;4.60;63.80;;;;;;5126729;28;20110;-69
2021/04/03 05:53:54;;;;;;;13.05;10.40;;;4.60;63.50;;;;;;5125097;28;20043;-69
2021/04/03 05:56:27;;;;;;;15.13;10.02;;;4.60;63.70;;;;;;5123724;28;20571;-69
2021/04/03 05:58:58;;;;;;;12.82;11.32;;;4.60;63.50;;;;;;5156059;28;20054;-69
2021/04/03 06:01:30;;;;;;;12.50;10.73;;;4.60;63.50;;;;;;5118378;28;20457;-68
2021/04/03 06:04:01;;;;;;;12.55;9.80;;;4.60;63.40;;;;;;5124883;28;20047;-68
2021/04/03 06:06:38;;;;;;;13.43;9.15;;;4.50;63.60;;;;;;5123358;28;20039;-68
2021/04/03 06:09:10;;;;;;;10.68;9.55;;;4.60;63.80;;;;;;5125149;28;20101;-68
2021/04/03 06:11:46;;;;;;;12.93;10.25;;;4.60;63.70;;;;;;5122029;28;20317;-69
2021/04/03 06:14:18;;;;;;;13.77;10.27;;;4.50;63.80;;;;;;5124150;28;20058;-70
2021/04/03 06:16:50;;;;;;;13.73;10.18;;;4.50;63.50;;;;;;5121452;28;20058;-69
2021/04/03 06:19:24;;;;;;;13.13;10.18;;;4.50;63.50;;;;;;5119547;28;20054;-68
2021/04/03 06:21:58;;;;;;;11.45;9.95;;;4.50;63.80;;;;;;5121315;28;20057;-68
2021/04/03 06:24:36;;;;;;;13.38;9.68;;;4.50;63.70;;;;;;5121847;28;20040;-68
2021/04/03 06:27:10;;;;;;;12.93;9.88;;;4.60;63.80;;;;;;5122487;28;20050;-68
2021/04/03 06:29:57;;;;;;;13.52;9.48;;;4.50;64.00;;;;;;5121528;28;20047;-67
2021/04/03 06:32:32;;;;;;;12.50;9.50;;;4.50;63.70;;;;;;5121746;28;20048;-68
2021/04/03 06:35:03;;;;;;;13.52;10.00;;;4.50;63.40;;;;;;5122060;28;20433;-68
2021/04/03 06:37:37;;;;;;;18.15;10.50;;;4.50;63.60;;;;;;5142632;28;20047;-69
2021/04/03 06:40:11;;;;;;;14.95;10.20;;;4.60;63.90;;;;;;5134776;28;20046;-67
2021/04/03 06:42:55;;;;;;;13.02;9.40;;;4.50;63.80;;;;;;5133054;28;20078;-69
2021/04/03 06:45:32;;;;;;;14.32;9.80;;;4.60;63.40;;;;;;5136307;28;20071;-68
2021/04/03 06:48:06;;;;;;;11.27;9.15;;;4.60;62.50;;;;;;5130608;28;20042;-68
2021/04/03 06:50:49;;;;;;;11.77;9.55;;;4.70;61.60;;;;;;5135142;28;20058;-68
2021/04/03 06:53:21;;;;;;;11.43;10.23;;;4.60;62.40;;;;;;5146669;28;20046;-69
2021/04/03 06:55:52;;;;;;;12.63;9.65;;;4.60;62.00;;;;;;5136549;28;20051;-69
2021/04/03 06:58:29;;;;;;;11.02;9.80;;;4.70;61.70;;;;;;5136752;28;20046;-69
2021/04/03 07:01:01;;;;;;;12.57;9.05;;;4.80;60.70;;;;;;5133239;28;20812;-69
2021/04/03 07:03:37;;;;;;;9.95;8.75;;;4.90;60.70;;;;;;5135869;28;20077;-70
2021/04/03 07:06:10;;;;;;;10.80;9.30;;;4.90;60.80;;;;;;5137532;28;20050;-70
2021/04/03 07:08:43;;;;;;;12.95;9.57;;;5.00;60.70;;;;;;5132732;28;20121;-69
2021/04/03 07:11:15;;;;;;;15.85;9.30;;;5.10;60.10;;;;;;5134947;28;20505;-68
2021/04/03 07:13:48;;;;;;;11.25;9.30;;;5.10;59.70;;;;;;5135553;28;20050;-70
2021/04/03 07:16:21;;;;;;;10.73;9.52;;;5.10;59.90;;;;;;5136261;28;20038;-69
2021/04/03 07:18:55;;;;;;;10.75;8.85;;;5.10;60.00;;;;;;5133060;28;20054;-70
2021/04/03 07:21:27;;;;;;;11.00;8.77;;;5.20;59.10;;;;;;5133973;28;20117;-69
2021/04/03 07:24:00;;;;;;;13.93;8.85;;;5.30;59.10;;;;;;5134406;28;20851;-69
2021/04/03 07:26:32;;;;;;;10.35;8.88;;;5.40;58.50;;;;;;5143485;28;20049;-69
2021/04/03 07:29:03;;;;;;;11.75;8.30;;;5.40;57.90;;;;;;5136807;28;20051;-71
2021/04/03 07:31:38;;;;;;;11.77;8.93;;;5.40;57.90;;;;;;5164363;28;20947;-69
2021/04/03 07:34:09;;;;;;;11.63;8.82;;;5.30;58.10;;;;;;5134675;28;20094;-68
2021/04/03 07:36:41;;;;;;;13.65;9.02;;;5.50;58.00;;;;;;5132413;28;20036;-68
2021/04/03 07:39:36;;;;;;;12.18;8.55;;;5.60;57.90;;;;;;5133724;28;20042;-68
2021/04/03 07:42:32;;;;;;;12.25;8.95;;;5.60;56.80;;;;;;5137244;28;20046;-68
2021/04/03 07:45:06;;;;;;;10.95;8.93;;;5.50;58.20;;;;;;5148962;28;20051;-68
2021/04/03 07:47:47;;;;;;;11.35;8.10;;;5.50;57.50;;;;;;5133323;28;20038;-68
2021/04/03 07:50:41;;;;;;;14.90;9.25;;;5.60;57.10;;;;;;5133359;28;20039;-69
2021/04/03 07:53:13;;;;;;;11.50;8.52;;;5.70;57.50;;;;;;5134691;28;20129;-68
2021/04/03 07:55:44;;;;;;;14.27;8.55;;;5.90;57.40;;;;;;5133437;28;20047;-70
2021/04/03 07:58:19;;;;;;;10.65;8.48;;;6.00;55.40;;;;;;5160238;28;20154;-70
2021/04/03 08:00:52;;;;;;;9.30;8.05;;;5.90;55.80;;;;;;5127265;28;20408;-70
2021/04/03 08:03:25;;;;;;;10.77;7.93;;;5.70;55.20;;;;;;5161375;28;20078;-70
2021/04/03 08:06:08;;;;;;;10.48;7.90;;;5.70;55.60;;;;;;5130519;28;20105;-69
2021/04/03 08:08:47;;;;;;;11.45;8.20;;;5.80;56.40;;;;;;5132882;28;20045;-69
2021/04/03 08:11:18;;;;;;;9.48;7.80;;;6.00;55.00;;;;;;5145358;28;20381;-68
2021/04/03 08:13:52;;;;;;;9.70;7.45;;;6.10;54.50;;;;;;5165688;28;20133;-69
2021/04/03 08:16:28;;;;;;;10.80;7.80;;;6.20;53.10;;;;;;5134002;28;20552;-72
2021/04/03 08:19:00;;;;;;;10.88;8.27;;;6.40;53.30;;;;;;5132539;28;20058;-72
2021/04/03 08:21:45;;;;;;;11.20;8.20;;;6.20;53.50;;;;;;5146474;28;20078;-70
2021/04/03 08:24:19;;;;;;;10.60;8.13;;;6.10;55.00;;;;;;5132985;28;20038;-71
2021/04/03 08:26:56;;;;;;;12.45;8.45;;;6.40;53.30;;;;;;5135026;28;20527;-72
2021/04/03 08:29:30;;;;;;;11.05;8.32;;;6.80;53.20;;;;;;5135935;28;20113;-72
2021/04/03 08:32:03;;;;;;;10.93;9.23;;;6.80;52.30;;;;;;5128279;28;20159;-70
2021/04/03 08:34:42;;;;;;;10.63;7.85;;;7.00;52.60;;;;;;5130681;28;20737;-68
2021/04/03 08:37:14;;;;;;;10.10;8.40;;;7.20;51.50;;;;;;5127512;28;20054;-68
2021/04/03 08:39:46;;;;;;;12.82;8.73;;;7.10;51.60;;;;;;5125526;28;20042;-69
2021/04/03 08:42:19;;;;;;;10.55;8.65;;;7.20;52.80;;;;;;5127381;28;20400;-71
2021/04/03 08:44:51;;;;;;;10.70;8.23;;;7.40;51.30;;;;;;5130788;28;20492;-72
2021/04/03 08:47:22;;;;;;;13.23;8.65;;;7.30;50.90;;;;;;5160850;28;20097;-71
2021/04/03 08:49:54;;;;;;;12.90;8.20;;;7.10;50.80;;;;;;5128390;28;20050;-69
2021/04/03 08:52:29;;;;;;;10.48;8.30;;;7.00;52.10;;;;;;5129141;28;20586;-70
2021/04/03 08:55:00;;;;;;;10.80;7.85;;;7.00;51.20;;;;;;5126709;28;20398;-69
2021/04/03 08:57:32;;;;;;;11.38;8.73;;;7.00;51.20;;;;;;5127135;28;20133;-70
2021/04/03 09:00:04;;;;;;;10.82;8.52;;;7.10;51.20;;;;;;5124050;28;20118;-70
2021/04/03 09:02:36;;;;;;;10.40;8.15;;;7.10;49.90;;;;;;5139532;28;20133;-69
2021/04/03 09:05:08;;;;;;;12.85;8.35;;;7.10;50.20;;;;;;5154542;28;20750;-69
2021/04/03 09:07:43;;;;;;;9.07;7.65;;;7.20;49.20;;;;;;5127041;28;20066;-69
2021/04/03 09:10:18;;;;;;;9.07;7.32;;;7.30;48.40;;;;;;5127136;28;20112;-70
2021/04/03 09:12:51;;;;;;;8.27;7.18;;;7.40;48.10;;;;;;5124372;28;20094;-72
2021/04/03 09:15:28;;;;;;;10.00;8.02;;;7.40;48.60;;;;;;5129826;28;20121;-69
2021/04/03 09:18:01;;;;;;;8.40;7.53;;;7.40;47.70;;;;;;5128438;28;20055;-70
2021/04/03 09:20:32;;;;;;;11.13;7.78;;;7.50;47.70;;;;;;5128031;28;20043;-70
2021/04/03 09:23:07;;;;;;;10.80;8.30;;;7.50;48.10;;;;;;5128630;28;20797;-70
2021/04/03 09:25:38;;;;;;;8.77;7.78;;;7.60;48.60;;;;;;5125209;28;20102;-69
2021/04/03 09:28:12;;;;;;;9.65;7.97;;;7.70;47.90;;;;;;5126282;28;20051;-69
2021/04/03 09:30:46;;;;;;;12.00;8.18;;;7.70;48.00;;;;;;5125860;28;20046;-67
2021/04/03 09:33:17;;;;;;;9.82;8.23;;;7.70;47.80;;;;;;5123992;28;20054;-69
2021/04/03 09:35:50;;;;;;;9.63;8.20;;;7.70;47.60;;;;;;5123673;28;20039;-69
2021/04/03 09:38:29;;;;;;;10.63;8.45;;;7.70;47.20;;;;;;5123225;28;20043;-68
2021/04/03 09:41:01;;;;;;;9.82;8.30;;;7.70;47.50;;;;;;5117576;28;20047;-69
2021/04/03 09:43:43;;;;;;;10.50;8.50;;;7.60;46.90;;;;;;5127001;28;20607;-69
2021/04/03 09:46:14;;;;;;;9.68;8.00;;;7.70;47.50;;;;;;5128408;28;20934;-69
2021/04/03 09:48:46;;;;;;;10.25;9.07;;;7.70;46.80;;;;;;5128448;28;20082;-68
2021/04/03 09:51:18;;;;;;;9.77;7.78;;;7.70;47.20;;;;;;5126133;28;20090;-68
2021/04/03 09:53:52;;;;;;;12.00;8.45;;;7.70;47.70;;;;;;5126251;28;20046;-69
2021/04/03 09:56:25;;;;;;;10.02;8.77;;;7.80;47.00;;;;;;5128306;28;20051;-68
2021/04/03 09:58:58;;;;;;;12.77;8.60;;;7.70;46.50;;;;;;5128345;28;20047;-68
2021/04/03 10:01:30;;;;;;;11.10;8.52;;;7.70;47.20;;;;;;5122406;28;20035;-68
2021/04/03 10:04:02;;;;;;;10.73;8.70;;;7.60;46.40;;;;;;5128304;28;20060;-69
2021/04/03 10:06:33;;;;;;;12.48;9.40;;;7.50;47.10;;;;;;5126468;28;20040;-67
2021/04/03 10:09:05;;;;;;;9.48;8.48;;;7.60;47.00;;;;;;5122911;28;20054;-69
2021/04/03 10:11:36;;;;;;;12.68;9.07;;;7.70;46.30;;;;;;5124377;28;20133;-68
2021/04/03 10:14:08;;;;;;;9.80;8.43;;;7.70;47.20;;;;;;5122008;28;20039;-69
2021/04/03 10:16:40;;;;;;;9.52;8.20;;;7.80;47.00;;;;;;5130233;28;20071;-68
2021/04/03 10:19:12;;;;;;;10.40;8.30;;;7.90;46.70;;;;;;5154174;28;20773;-68
2021/04/03 10:21:44;;;;;;;10.40;9.38;;;7.80;46.50;;;;;;5123040;28;20047;-67
2021/04/03 10:24:16;;;;;;;11.52;9.18;;;7.70;47.50;;;;;;5125072;28;20058;-68
2021/04/03 10:26:47;;;;;;;10.13;9.02;;;7.60;46.90;;;;;;5125557;28;20583;-70
2021/04/03 10:29:19;;;;;;;11.38;9.35;;;7.70;47.00;;;;;;5130772;28;20198;-69
2021/04/03 10:31:50;;;;;;;10.23;9.20;;;7.70;47.70;;;;;;5130556;28;20125;-68
2021/04/03 10:34:22;;;;;;;12.82;10.10;;;7.80;46.60;;;;;;5128083;28;20476;-68
2021/04/03 10:36:53;;;;;;;12.85;10.00;;;7.80;47.00;;;;;;5132071;28;20050;-69
2021/04/03 10:39:24;;;;;;;12.63;9.85;;;7.90;47.20;;;;;;5128194;28;20049;-71
2021/04/03 10:41:56;;;;;;;10.38;9.35;;;8.00;46.90;;;;;;5133634;28;20058;-69
2021/04/03 10:44:27;;;;;;;11.38;9.10;;;7.90;46.60;;;;;;5130090;28;20118;-69
2021/04/03 10:46:59;;;;;;;13.18;9.38;;;8.00;47.10;;;;;;5130499;28;20046;-69
2021/04/03 10:49:31;;;;;;;11.55;9.27;;;7.90;46.80;;;;;;5135801;28;20070;-70
2021/04/03 10:52:02;;;;;;;11.60;9.70;;;8.00;47.10;;;;;;5132362;28;20062;-70
2021/04/03 10:54:34;;;;;;;11.35;9.68;;;8.00;46.40;;;;;;5130857;28;20054;-69
2021/04/03 10:57:06;;;;;;;11.85;10.20;;;8.00;46.20;;;;;;5132013;28;20062;-70
2021/04/03 10:59:37;;;;;;;13.25;9.75;;;8.00;46.50;;;;;;5130525;28;20043;-69
2021/04/03 11:02:09;;;;;;;11.63;9.65;;;8.00;46.40;;;;;;5128278;28;20047;-69
2021/04/03 11:04:40;;;;;;;12.02;9.77;;;8.00;46.00;;;;;;5128404;28;20051;-70
2021/04/03 11:07:12;;;;;;;11.15;9.32;;;8.00;45.90;;;;;;5126932;28;20090;-70
2021/04/03 11:09:43;;;;;;;14.93;9.63;;;8.10;47.20;;;;;;5125303;28;20051;-69
2021/04/03 11:12:15;;;;;;;12.75;9.65;;;8.10;45.90;;;;;;5136835;28;20544;-71
2021/04/03 11:14:46;;;;;;;11.10;9.70;;;8.20;45.70;;;;;;5142652;28;20063;-71
2021/04/03 11:17:18;;;;;;;13.93;8.57;;;8.10;45.90;;;;;;5144743;28;20142;-71
2021/04/03 11:19:49;;;;;;;11.23;10.13;;;8.10;45.80;;;;;;5158406;28;20133;-70
2021/04/03 11:22:21;;;;;;;11.52;8.93;;;8.00;45.60;;;;;;5142475;28;20042;-72
2021/04/03 11:24:52;;;;;;;10.73;8.70;;;8.00;45.90;;;;;;5126857;28;20042;-70
2021/04/03 11:27:24;;;;;;;10.15;9.13;;;8.00;45.70;;;;;;5143479;28;20862;-69
2021/04/03 11:29:55;;;;;;;11.77;9.48;;;8.00;45.10;;;;;;5158047;28;20596;-68
2021/04/03 11:32:27;;;;;;;10.63;9.10;;;8.00;45.50;;;;;;5123042;28;20126;-68
2021/04/03 11:34:58;;;;;;;11.35;8.90;;;8.00;44.70;;;;;;5125570;28;20047;-68
2021/04/03 11:37:30;;;;;;;10.07;9.07;;;8.20;45.90;;;;;;5125000;28;20050;-68
2021/04/03 11:40:03;;;;;;;10.18;8.90;;;8.20;45.10;;;;;;5122709;28;20113;-68
2021/04/03 11:42:36;;;;;;;10.10;8.85;;;8.30;44.40;;;;;;5126006;28;20063;-68
2021/04/03 11:45:10;;;;;;;10.25;9.15;;;8.50;44.10;;;;;;5125706;28;20082;-68
2021/04/03 11:47:41;;;;;;;11.32;10.00;;;8.60;44.20;;;;;;5129126;28;20122;-69
2021/04/03 11:50:13;;;;;;;9.90;8.93;;;8.80;43.80;;;;;;5126577;28;20514;-69
2021/04/03 11:52:45;;;;;;;10.98;9.05;;;8.90;43.30;;;;;;5129544;28;20051;-69
2021/04/03 11:55:17;;;;;;;10.60;9.50;;;8.80;42.40;;;;;;5127922;28;20062;-69
2021/04/03 11:57:48;;;;;;;10.50;9.40;;;8.90;43.40;;;;;;5124215;28;20055;-69
2021/04/03 12:00:21;;;;;;;13.50;9.63;;;9.10;41.90;;;;;;5125388;28;20927;-69
2021/04/03 12:02:52;;;;;;;9.60;8.45;;;9.50;41.70;;;;;;5127575;28;20954;-67
2021/04/03 12:05:23;;;;;;;9.35;8.43;;;9.70;39.00;;;;;;5131133;28;20047;-69
2021/04/03 12:07:56;;;;;;;9.68;8.68;;;9.80;40.00;;;;;;5129422;28;20062;-68
2021/04/03 12:10:27;;;;;;;10.93;9.55;;;10.10;39.80;;;;;;5124620;28;20502;-68
2021/04/03 12:12:58;;;;;;;10.63;9.30;;;10.20;39.40;;;;;;5127026;28;20038;-68
2021/04/03 12:15:31;;;;;;;9.95;8.95;;;10.20;39.40;;;;;;5126535;28;20141;-69
2021/04/03 12:18:05;;;;;;;11.05;9.20;;;10.20;39.80;;;;;;5156356;28;20530;-69
2021/04/03 12:20:36;;;;;;;9.60;8.60;;;10.10;38.40;;;;;;5125218;28;20113;-68
2021/04/03 12:23:08;;;;;;;10.38;9.27;;;10.00;38.50;;;;;;5157823;28;20389;-68
2021/04/03 12:25:39;;;;;;;11.00;9.73;;;10.00;38.90;;;;;;5125330;28;20055;-69
2021/04/03 12:28:10;;;;;;;9.82;8.77;;;9.90;39.70;;;;;;5122275;28;20130;-69
2021/04/03 12:30:42;;;;;;;10.35;9.02;;;9.90;40.50;;;;;;5122395;28;20842;-69
2021/04/03 12:33:20;;;;;;;12.55;9.55;;;10.00;39.60;;;;;;5123505;28;20039;-69
2021/04/03 12:35:52;;;;;;;10.63;9.52;;;9.90;40.50;;;;;;5123193;28;20099;-69
2021/04/03 12:38:23;;;;;;;11.45;8.98;;;10.00;40.10;;;;;;5126763;28;20078;-69
2021/04/03 12:40:55;;;;;;;9.30;8.35;;;9.90;39.90;;;;;;5120856;28;20054;-69
2021/04/03 12:43:26;;;;;;;10.23;9.20;;;9.90;39.00;;;;;;5122594;28;20264;-69
2021/04/03 12:45:58;;;;;;;11.43;8.90;;;9.80;39.10;;;;;;5153823;28;20043;-68
2021/04/03 12:48:29;;;;;;;11.18;9.63;;;9.80;39.20;;;;;;5121209;28;20051;-68
2021/04/03 12:51:02;;;;;;;10.43;9.43;;;9.70;38.40;;;;;;5122570;28;20138;-67
2021/04/03 12:53:34;;;;;;;10.60;8.85;;;9.70;39.30;;;;;;5124591;28;20436;-69
2021/04/03 12:56:07;;;;;;;11.63;6.10;;;9.80;39.00;;;;;;5123795;28;20564;-69
2021/04/03 12:58:38;;;;;;;12.02;9.68;;;9.80;39.60;;;;;;5121469;28;20039;-70
2021/04/03 13:01:10;;;;;;;11.48;9.43;;;9.90;39.40;;;;;;5154595;28;20906;-69
2021/04/03 13:03:41;;;;;;;9.68;7.68;;;10.00;39.80;;;;;;5125468;28;20042;-70
2021/04/03 13:06:13;;;;;;;10.95;9.68;;;10.20;38.40;;;;;;5124175;28;20046;-71
2021/04/03 13:08:45;;;;;;;10.80;9.55;;;10.60;38.00;;;;;;5123995;28;20047;-71
2021/04/03 13:11:17;;;;;;;10.15;7.82;;;10.80;37.80;;;;;;5122660;28;20058;-70
2021/04/03 13:13:48;;;;;;;9.80;6.07;;;10.90;37.20;;;;;;5125095;28;20465;-73
2021/04/03 13:16:19;;;;;;;12.75;6.05;;;11.20;35.30;;;;;;5156152;28;20059;-69
2021/04/03 13:18:51;;;;;;;7.43;5.05;;;11.30;35.60;;;;;;5124261;28;20884;-69